Time;durP1;ratioP1;P1;durP2;ratioP2;P2;SDS_P1;SDS_P2;PMS_P1;PMS_P2;Temp;Humidity;BMP_temperature;BMP_pressure;BME280_temperature;BME280_humidity;BME280_pressure;Samples;Min_cycle;Max_cycle;Signal;HPM_P1;HPM_P2
2021/03/25 00:01:38;;;;;;;38.70;21.63;;;8.50;68.20;;;;;;5069517;28;20032;-78
2021/03/25 00:04:04;;;;;;;40.95;23.38;;;8.50;68.20;;;;;;5069520;28;20020;-78
2021/03/25 00:06:31;;;;;;;48.83;22.45;;;8.50;68.20;;;;;;5069616;28;20475;-78
2021/03/25 00:08:59;;;;;;;39.58;21.70;;;8.50;68.10;;;;;;5070534;28;20028;-80
2021/03/25 00:11:25;;;;;;;46.17;21.85;;;8.50;68.40;;;;;;5068972;28;20616;-79
2021/03/25 00:13:50;;;;;;;46.35;23.27;;;8.40;68.70;;;;;;5071204;28;20115;-77
2021/03/25 00:16:17;;;;;;;41.72;22.52;;;8.50;68.80;;;;;;5066845;28;20081;-72
2021/03/25 00:18:43;;;;;;;43.55;21.02;;;8.50;68.80;;;;;;5066432;28;20028;-72
2021/03/25 00:21:10;;;;;;;41.88;22.02;;;8.40;68.80;;;;;;5067067;28;20060;-72
2021/03/25 00:23:36;;;;;;;44.78;21.98;;;8.40;68.90;;;;;;5067263;28;20020;-72
2021/03/25 00:26:02;;;;;;;39.45;23.17;;;8.40;68.80;;;;;;5067762;28;20136;-73
2021/03/25 00:28:28;;;;;;;42.03;22.48;;;8.40;69.00;;;;;;5066898;28;20028;-73
2021/03/25 00:30:54;;;;;;;38.40;21.92;;;8.40;69.10;;;;;;5065844;28;20028;-72
2021/03/25 00:33:21;;;;;;;41.88;21.23;;;8.40;69.30;;;;;;5067920;28;20066;-72
2021/03/25 00:35:48;;;;;;;41.90;21.33;;;8.30;69.60;;;;;;5068044;28;20032;-71
2021/03/25 00:38:15;;;;;;;40.38;21.45;;;8.30;69.70;;;;;;5067862;28;20029;-72
2021/03/25 00:40:42;;;;;;;41.20;21.60;;;8.20;69.60;;;;;;5062894;28;20098;-73
2021/03/25 00:43:09;;;;;;;46.47;22.98;;;8.30;69.70;;;;;;5068916;28;20363;-73
2021/03/25 00:45:42;;;;;;;43.80;21.60;;;8.30;69.60;;;;;;5071062;28;20027;-73
2021/03/25 00:48:09;;;;;;;38.08;20.83;;;8.30;69.90;;;;;;5071685;28;20027;-72
2021/03/25 00:50:44;;;;;;;46.63;22.85;;;8.20;69.70;;;;;;5069663;28;20513;-72
2021/03/25 00:53:13;;;;;;;40.33;21.63;;;8.10;70.20;;;;;;5071733;28;20016;-72
2021/03/25 00:55:40;;;;;;;40.22;20.85;;;8.10;70.50;;;;;;5070245;28;20047;-77
2021/03/25 00:58:05;;;;;;;35.58;21.73;;;8.10;70.50;;;;;;5071676;28;20409;-78
2021/03/25 01:00:35;;;;;;;40.78;21.67;;;8.10;70.50;;;;;;5072411;28;20111;-71
2021/03/25 01:03:01;;;;;;;44.47;22.65;;;8.10;70.50;;;;;;5072592;28;20429;-72
2021/03/25 01:05:29;;;;;;;45.03;22.80;;;8.20;70.30;;;;;;5071678;28;20028;-72
2021/03/25 01:07:55;;;;;;;38.97;21.45;;;8.20;70.30;;;;;;5072491;28;20020;-72
2021/03/25 01:10:35;;;;;;;38.85;21.35;;;8.20;70.30;;;;;;5072265;28;20047;-72
2021/03/25 01:13:05;;;;;;;43.75;22.48;;;8.10;70.30;;;;;;5071407;28;20026;-72
2021/03/25 01:15:31;;;;;;;43.70;20.70;;;8.10;70.60;;;;;;5072693;28;20035;-71
2021/03/25 01:18:00;;;;;;;37.22;20.83;;;8.10;70.70;;;;;;5072435;28;20024;-72
2021/03/25 01:20:33;;;;;;;44.55;21.42;;;8.10;70.70;;;;;;5072120;28;20103;-72
2021/03/25 01:22:59;;;;;;;41.13;21.30;;;8.10;70.80;;;;;;5071248;28;20433;-72
2021/03/25 01:25:29;;;;;;;38.38;20.77;;;8.00;70.90;;;;;;5072047;28;20024;-72
2021/03/25 01:28:00;;;;;;;45.25;21.42;;;8.00;71.10;;;;;;5072652;28;20108;-72
2021/03/25 01:30:29;;;;;;;37.65;19.73;;;8.00;71.20;;;;;;5070681;28;20042;-72
2021/03/25 01:32:56;;;;;;;42.65;21.10;;;8.00;71.40;;;;;;5072503;28;20024;-72
2021/03/25 01:35:22;;;;;;;36.53;20.33;;;7.90;71.20;;;;;;5072096;28;20474;-72
2021/03/25 01:37:49;;;;;;;39.20;20.27;;;7.90;71.20;;;;;;5072312;28;20024;-72
2021/03/25 01:40:20;;;;;;;36.72;20.52;;;7.90;71.30;;;;;;5070253;28;20060;-72
2021/03/25 01:42:46;;;;;;;39.47;20.85;;;8.00;71.20;;;;;;5072145;28;20020;-72
2021/03/25 01:45:30;;;;;;;38.72;19.75;;;8.00;71.10;;;;;;5076029;28;20095;-73
2021/03/25 01:48:00;;;;;;;40.80;21.05;;;7.90;71.20;;;;;;5075110;28;20052;-72
2021/03/25 01:50:26;;;;;;;38.90;19.90;;;7.90;71.20;;;;;;5074969;28;20409;-72
2021/03/25 01:53:11;;;;;;;36.42;19.90;;;7.90;71.50;;;;;;5076162;28;20028;-72
2021/03/25 01:56:19;;;;;;;41.75;20.08;;;7.80;71.70;;;;;;5074983;28;20028;-72
2021/03/25 01:59:20;;;;;;;43.30;20.35;;;7.80;71.90;;;;;;5071654;28;20041;-72
2021/03/25 02:01:48;;;;;;;37.00;20.35;;;7.80;71.80;;;;;;5074197;28;20032;-71
2021/03/25 02:04:32;;;;;;;35.88;19.65;;;7.80;71.80;;;;;;5075471;28;20107;-71
2021/03/25 02:07:12;;;;;;;38.72;19.95;;;7.80;71.70;;;;;;5074572;28;20036;-72
2021/03/25 02:10:22;;;;;;;37.42;20.15;;;7.80;71.90;;;;;;5075772;28;20099;-71
2021/03/25 02:13:00;;;;;;;39.35;19.33;;;7.70;72.00;;;;;;5053441;28;20024;-71
2021/03/25 02:15:31;;;;;;;39.88;20.15;;;7.70;72.00;;;;;;5074355;28;20037;-71
2021/03/25 02:18:16;;;;;;;39.17;18.90;;;7.60;72.20;;;;;;5075784;28;20063;-71
2021/03/25 02:21:09;;;;;;;33.72;18.73;;;7.60;72.40;;;;;;5073809;28;20037;-71
2021/03/25 02:24:06;;;;;;;36.40;19.00;;;7.60;72.30;;;;;;5075587;28;20042;-71
2021/03/25 02:26:37;;;;;;;41.92;19.27;;;7.70;72.10;;;;;;5074052;28;20093;-71
2021/03/25 02:29:02;;;;;;;39.83;20.20;;;7.70;72.00;;;;;;5075318;28;20108;-72
2021/03/25 02:31:35;;;;;;;36.35;19.23;;;7.80;72.00;;;;;;5073755;28;20131;-71
2021/03/25 02:34:05;;;;;;;38.60;20.40;;;7.80;71.80;;;;;;5074122;28;20379;-71
2021/03/25 02:37:08;;;;;;;35.95;19.60;;;7.80;71.80;;;;;;5075717;28;20090;-71
2021/03/25 02:39:56;;;;;;;38.10;19.38;;;7.80;71.90;;;;;;5067716;28;20048;-71
2021/03/25 02:42:43;;;;;;;34.75;19.80;;;7.80;71.90;;;;;;5055049;28;20025;-71
2021/03/25 02:45:21;;;;;;;34.65;19.45;;;7.70;72.00;;;;;;5055105;28;20029;-71
2021/03/25 02:47:50;;;;;;;39.70;18.25;;;7.70;72.20;;;;;;5053772;28;20491;-71
2021/03/25 02:50:28;;;;;;;35.75;19.92;;;7.70;72.20;;;;;;5055060;28;20032;-72
2021/03/25 02:52:59;;;;;;;35.80;18.98;;;7.70;72.30;;;;;;5055114;28;20471;-71
2021/03/25 02:55:26;;;;;;;33.95;18.20;;;7.70;72.10;;;;;;5053743;28;20033;-72
2021/03/25 02:58:14;;;;;;;38.17;19.83;;;7.70;72.20;;;;;;5087513;28;20017;-71
2021/03/25 03:00:44;;;;;;;35.97;19.35;;;7.70;72.30;;;;;;5072440;28;20021;-71
2021/03/25 03:03:15;;;;;;;40.20;19.52;;;7.70;72.20;;;;;;5075006;28;20420;-71
2021/03/25 03:05:43;;;;;;;35.20;19.85;;;7.80;72.30;;;;;;5074879;28;20024;-72
2021/03/25 03:08:15;;;;;;;37.78;20.27;;;7.80;72.20;;;;;;5074729;28;20013;-71
2021/03/25 03:10:53;;;;;;;37.53;20.73;;;7.70;72.30;;;;;;5082231;28;20107;-71
2021/03/25 03:13:22;;;;;;;44.85;21.27;;;7.70;72.40;;;;;;5073471;28;20167;-72
2021/03/25 03:16:04;;;;;;;35.83;19.88;;;7.70;72.40;;;;;;5074546;28;20430;-71
2021/03/25 03:18:49;;;;;;;43.40;20.85;;;7.70;72.30;;;;;;5073265;28;20032;-72
2021/03/25 03:21:27;;;;;;;39.00;19.33;;;7.80;72.20;;;;;;5072425;28;20410;-71
2021/03/25 03:23:54;;;;;;;37.20;20.27;;;7.80;72.20;;;;;;5074063;28;20100;-71
2021/03/25 03:26:30;;;;;;;44.60;21.73;;;7.80;72.20;;;;;;5073974;28;20455;-71
2021/03/25 03:29:04;;;;;;;41.55;21.20;;;7.70;72.20;;;;;;5073950;28;20017;-72
2021/03/25 03:31:45;;;;;;;42.50;20.20;;;7.80;72.20;;;;;;5073522;28;20402;-71
2021/03/25 03:34:24;;;;;;;42.50;19.88;;;7.80;72.30;;;;;;5052504;28;20120;-71
2021/03/25 03:36:53;;;;;;;40.30;20.88;;;7.80;72.30;;;;;;5063297;28;20078;-71
2021/03/25 03:39:25;;;;;;;39.13;20.35;;;7.70;72.30;;;;;;5069414;28;20112;-71
2021/03/25 03:42:02;;;;;;;44.95;21.70;;;7.70;72.40;;;;;;5053895;28;20091;-71
2021/03/25 03:44:32;;;;;;;40.35;21.13;;;7.70;72.50;;;;;;5052684;28;20021;-72
2021/03/25 03:47:01;;;;;;;37.15;20.80;;;7.70;72.50;;;;;;5053901;28;20020;-71
2021/03/25 03:49:29;;;;;;;41.97;19.73;;;7.70;72.50;;;;;;5066846;28;20016;-71
2021/03/25 03:52:07;;;;;;;38.47;20.60;;;7.70;72.60;;;;;;5072771;28;20500;-72
2021/03/25 03:54:34;;;;;;;41.50;21.48;;;7.70;72.50;;;;;;5073888;28;20028;-71
2021/03/25 03:57:28;;;;;;;41.65;21.52;;;7.70;72.60;;;;;;5073849;28;20024;-71
2021/03/25 04:00:06;;;;;;;38.92;20.33;;;7.70;72.70;;;;;;5073681;28;20497;-71
2021/03/25 04:03:03;;;;;;;42.22;22.15;;;7.60;72.80;;;;;;5072179;28;20040;-71
2021/03/25 04:05:38;;;;;;;38.08;20.40;;;7.60;72.90;;;;;;5055890;28;20037;-71
2021/03/25 04:08:29;;;;;;;36.83;20.73;;;7.60;73.00;;;;;;5072422;28;20031;-71
2021/03/25 04:11:35;;;;;;;40.75;20.55;;;7.60;72.70;;;;;;5056136;28;20031;-71
2021/03/25 04:14:44;;;;;;;35.22;20.45;;;7.60;72.60;;;;;;5053497;28;20468;-71
2021/03/25 04:17:12;;;;;;;40.97;20.30;;;7.60;72.50;;;;;;5052894;28;20041;-71
2021/03/25 04:19:42;;;;;;;38.65;20.25;;;7.60;72.50;;;;;;5053302;28;20032;-71
2021/03/25 04:22:36;;;;;;;35.72;19.00;;;7.60;72.40;;;;;;5093346;28;20052;-71
2021/03/25 04:25:04;;;;;;;33.55;19.20;;;7.60;72.50;;;;;;5070157;28;20110;-71
2021/03/25 04:27:39;;;;;;;39.42;20.85;;;7.60;72.60;;;;;;5073214;28;20043;-72
2021/03/25 04:30:09;;;;;;;38.17;20.00;;;7.50;72.90;;;;;;5072709;28;20074;-72
2021/03/25 04:32:36;;;;;;;38.55;20.13;;;7.50;73.30;;;;;;5073303;28;20029;-71
2021/03/25 04:35:04;;;;;;;38.53;19.30;;;7.50;73.40;;;;;;5073179;28;20063;-71
2021/03/25 04:37:32;;;;;;;42.53;20.48;;;7.40;73.50;;;;;;5073148;28;20051;-72
2021/03/25 04:39:59;;;;;;;34.50;19.70;;;7.40;73.80;;;;;;5064536;28;20111;-72
2021/03/25 04:42:25;;;;;;;36.45;20.67;;;7.40;74.00;;;;;;5072796;28;20107;-72
2021/03/25 04:45:07;;;;;;;36.33;20.30;;;7.30;74.20;;;;;;5071642;28;20032;-72
2021/03/25 04:47:41;;;;;;;46.70;21.08;;;7.30;74.40;;;;;;5072380;28;20036;-71
2021/03/25 04:50:22;;;;;;;47.58;22.73;;;7.30;74.50;;;;;;5072804;28;20108;-71
2021/03/25 04:52:49;;;;;;;36.60;19.88;;;7.30;74.40;;;;;;5071283;28;20075;-71
2021/03/25 04:55:19;;;;;;;36.88;20.90;;;7.30;74.10;;;;;;5061549;28;20043;-71
2021/03/25 04:57:57;;;;;;;36.97;20.30;;;7.30;74.20;;;;;;5071539;28;20051;-72
2021/03/25 05:00:30;;;;;;;37.47;19.58;;;7.30;74.30;;;;;;5072462;28;20029;-72
2021/03/25 05:02:59;;;;;;;38.20;20.00;;;7.30;74.50;;;;;;5072765;28;20378;-72
2021/03/25 05:05:28;;;;;;;37.95;21.02;;;7.20;74.50;;;;;;5072582;28;20078;-72
2021/03/25 05:08:00;;;;;;;41.63;20.45;;;7.20;74.60;;;;;;5072648;28;20530;-72
2021/03/25 05:10:42;;;;;;;39.08;19.25;;;7.20;74.50;;;;;;5072289;28;20094;-71
2021/03/25 05:13:20;;;;;;;31.98;18.88;;;7.20;74.60;;;;;;5072612;28;20021;-72
2021/03/25 05:15:46;;;;;;;38.58;21.15;;;7.20;74.70;;;;;;5071167;28;20032;-71
2021/03/25 05:18:24;;;;;;;37.40;19.60;;;7.20;74.50;;;;;;5071038;28;20025;-71
2021/03/25 05:20:55;;;;;;;36.63;19.65;;;7.20;74.50;;;;;;5074652;28;20045;-72
2021/03/25 05:23:28;;;;;;;40.97;20.83;;;7.20;74.40;;;;;;5072431;28;20021;-71
2021/03/25 05:26:02;;;;;;;33.80;18.73;;;7.20;74.50;;;;;;5066916;28;20025;-71
2021/03/25 05:28:53;;;;;;;37.50;19.88;;;7.30;74.30;;;;;;5068089;28;20035;-71
2021/03/25 05:31:22;;;;;;;37.25;20.55;;;7.30;74.30;;;;;;5069238;28;20033;-71
2021/03/25 05:33:57;;;;;;;39.20;19.40;;;7.30;74.40;;;;;;5070892;28;20111;-72
2021/03/25 05:36:24;;;;;;;40.72;19.50;;;7.30;74.30;;;;;;5067962;28;20028;-71
2021/03/25 05:38:53;;;;;;;39.80;20.50;;;7.30;74.20;;;;;;5070633;28;20036;-71
2021/03/25 05:41:47;;;;;;;41.60;18.95;;;7.40;74.40;;;;;;5067101;28;20025;-71
2021/03/25 05:44:24;;;;;;;39.78;19.50;;;7.30;74.60;;;;;;5069203;28;20040;-71
2021/03/25 05:47:27;;;;;;;42.40;19.60;;;7.30;74.50;;;;;;5070666;28;20382;-71
2021/03/25 05:50:14;;;;;;;34.92;18.77;;;7.30;74.50;;;;;;5055239;28;20025;-71
2021/03/25 05:53:07;;;;;;;38.17;19.40;;;7.30;74.20;;;;;;5067281;28;20040;-72
2021/03/25 05:55:44;;;;;;;34.50;19.10;;;7.40;74.20;;;;;;5072175;28;20078;-71
2021/03/25 05:58:22;;;;;;;38.88;19.33;;;7.40;74.30;;;;;;5072148;28;20025;-71
2021/03/25 06:00:48;;;;;;;37.40;20.98;;;7.40;74.40;;;;;;5070203;28;20500;-71
2021/03/25 06:03:17;;;;;;;38.35;19.95;;;7.40;74.40;;;;;;5064900;28;20020;-71
2021/03/25 06:05:47;;;;;;;36.83;19.33;;;7.40;74.60;;;;;;5071573;28;20016;-71
2021/03/25 06:08:24;;;;;;;40.28;19.80;;;7.50;74.70;;;;;;5071912;28;20017;-71
2021/03/25 06:10:59;;;;;;;40.13;20.05;;;7.50;74.30;;;;;;5071833;28;20063;-71
2021/03/25 06:13:50;;;;;;;36.28;19.80;;;7.50;74.40;;;;;;5071678;28;20016;-71
2021/03/25 06:16:22;;;;;;;41.20;21.35;;;7.60;74.40;;;;;;5070852;28;20540;-72
2021/03/25 06:19:11;;;;;;;36.58;19.50;;;7.60;74.50;;;;;;5070642;28;20025;-72
2021/03/25 06:21:43;;;;;;;41.00;20.35;;;7.70;74.50;;;;;;5071538;28;20049;-71
2021/03/25 06:24:47;;;;;;;38.65;19.55;;;7.70;74.40;;;;;;5070475;28;20525;-71
2021/03/25 06:27:25;;;;;;;35.22;20.00;;;7.80;74.50;;;;;;5069069;28;20036;-71
2021/03/25 06:29:54;;;;;;;41.33;20.13;;;7.80;74.30;;;;;;5071676;28;20017;-71
2021/03/25 06:32:31;;;;;;;36.90;20.60;;;7.90;73.90;;;;;;5073847;28;20024;-71
2021/03/25 06:35:05;;;;;;;43.75;21.15;;;8.00;73.90;;;;;;5073887;28;20021;-72
2021/03/25 06:37:33;;;;;;;45.50;19.55;;;8.00;74.20;;;;;;5074182;28;20029;-71
2021/03/25 06:40:13;;;;;;;39.88;19.50;;;8.00;73.80;;;;;;5075152;28;20063;-71
2021/03/25 06:43:09;;;;;;;40.78;20.63;;;8.10;73.60;;;;;;5075106;28;20090;-71
2021/03/25 06:46:01;;;;;;;40.40;19.90;;;8.20;73.80;;;;;;5075104;28;20070;-71
2021/03/25 06:48:35;;;;;;;38.60;20.53;;;8.20;73.50;;;;;;5075015;28;20020;-71
2021/03/25 06:51:17;;;;;;;43.45;22.15;;;8.30;73.70;;;;;;5075190;28;20031;-71
2021/03/25 06:53:43;;;;;;;;;;;8.30;73.40;;;;;;5075509;28;20145;-71
2021/03/25 06:56:17;;;;;;;45.38;20.38;;;8.40;73.50;;;;;;5074844;28;19897;-71
2021/03/25 06:58:51;;;;;;;44.70;23.33;;;8.40;73.60;;;;;;5074982;28;20035;-71
2021/03/25 07:01:26;;;;;;;45.28;23.17;;;8.50;73.70;;;;;;5074814;28;20020;-72
2021/03/25 07:03:56;;;;;;;42.35;23.42;;;8.50;73.70;;;;;;5074692;28;20036;-71
2021/03/25 07:06:26;;;;;;;47.20;23.30;;;8.60;73.90;;;;;;5074549;28;20029;-71
2021/03/25 07:08:54;;;;;;;43.38;22.65;;;8.60;74.10;;;;;;5072867;28;20029;-71
2021/03/25 07:11:21;;;;;;;47.40;24.75;;;8.70;73.80;;;;;;5067788;28;20390;-72
2021/03/25 07:14:04;;;;;;;50.83;23.30;;;8.80;73.70;;;;;;5074625;28;20025;-71
2021/03/25 07:16:32;;;;;;;42.83;23.73;;;8.80;73.80;;;;;;5067228;28;20028;-72
2021/03/25 07:19:18;;;;;;;46.63;23.25;;;8.90;74.30;;;;;;5062407;28;20078;-72
2021/03/25 07:21:48;;;;;;;46.83;23.98;;;9.00;74.50;;;;;;5075358;28;20363;-71
2021/03/25 07:24:23;;;;;;;55.63;24.55;;;9.00;74.40;;;;;;5074409;28;20020;-72
2021/03/25 07:26:56;;;;;;;50.83;23.55;;;9.10;74.40;;;;;;5074029;28;20033;-72
2021/03/25 07:29:30;;;;;;;49.38;23.65;;;9.20;75.20;;;;;;5073978;28;20024;-72
2021/03/25 07:32:04;;;;;;;53.42;22.70;;;9.20;73.90;;;;;;5074088;28;20024;-71
2021/03/25 07:34:32;;;;;;;45.13;23.00;;;9.30;73.90;;;;;;5072761;28;20478;-71
2021/03/25 07:37:00;;;;;;;53.05;23.92;;;9.30;74.00;;;;;;5073064;28;20017;-71
2021/03/25 07:39:51;;;;;;;46.58;24.67;;;9.40;73.40;;;;;;5061942;28;20033;-71
2021/03/25 07:42:31;;;;;;;47.92;24.17;;;9.50;71.80;;;;;;5052586;28;20128;-71
2021/03/25 07:45:31;;;;;;;47.42;22.98;;;9.50;69.50;;;;;;5071541;28;20024;-71
2021/03/25 07:48:22;;;;;;;46.13;24.83;;;9.60;69.60;;;;;;5074088;28;20025;-71
2021/03/25 07:50:50;;;;;;;50.55;24.13;;;9.70;69.40;;;;;;5071183;28;20612;-72
2021/03/25 07:53:24;;;;;;;50.85;26.02;;;9.90;69.50;;;;;;5074209;28;20025;-71
2021/03/25 07:56:11;;;;;;;52.65;26.17;;;9.80;69.80;;;;;;5072306;28;20107;-71
2021/03/25 07:58:45;;;;;;;51.72;24.90;;;10.00;70.50;;;;;;5058931;28;20034;-71
2021/03/25 08:01:22;;;;;;;46.95;23.80;;;10.10;70.30;;;;;;5070503;28;20538;-71
2021/03/25 08:03:53;;;;;;;45.90;24.60;;;10.20;69.60;;;;;;5071353;28;20475;-71
2021/03/25 08:06:22;;;;;;;47.33;24.17;;;10.30;69.40;;;;;;5072516;28;20060;-79
2021/03/25 08:09:08;;;;;;;47.85;24.15;;;10.40;69.60;;;;;;5076176;28;20107;-80
2021/03/25 08:11:48;;;;;;;50.97;24.38;;;10.50;68.50;;;;;;5076348;28;20034;-72
2021/03/25 08:14:29;;;;;;;45.55;24.42;;;10.60;68.80;;;;;;5078434;28;20112;-71
2021/03/25 08:17:25;;;;;;;57.83;26.20;;;10.70;67.80;;;;;;5081296;28;20017;-71
2021/03/25 08:20:33;;;;;;;44.83;24.10;;;10.80;69.00;;;;;;5071993;28;20028;-72
2021/03/25 08:23:16;;;;;;;46.72;25.48;;;10.90;68.50;;;;;;5066121;28;20049;-71
2021/03/25 08:25:47;;;;;;;54.00;25.15;;;10.90;67.50;;;;;;5073629;28;20433;-71
2021/03/25 08:28:31;;;;;;;45.88;24.38;;;10.90;67.50;;;;;;5074452;28;20071;-79
2021/03/25 08:31:32;;;;;;;58.45;26.45;;;10.90;67.90;;;;;;5073051;28;20647;-79
2021/03/25 08:34:27;;;;;;;52.25;25.45;;;11.10;66.80;;;;;;5066595;28;20033;-79
2021/03/25 08:37:23;;;;;;;59.60;25.83;;;11.10;66.90;;;;;;5072959;28;20029;-79
2021/03/25 08:40:06;;;;;;;44.53;23.77;;;11.20;67.30;;;;;;5072545;28;20024;-79
2021/03/25 08:42:40;;;;;;;54.45;23.92;;;11.20;67.50;;;;;;5072435;28;20520;-79
2021/03/25 08:45:39;;;;;;;45.92;24.92;;;11.20;66.40;;;;;;5070796;28;20016;-78
2021/03/25 08:48:26;;;;;;;46.42;25.83;;;11.30;67.40;;;;;;5071197;28;20021;-78
2021/03/25 08:51:01;;;;;;;48.70;25.08;;;11.40;65.30;;;;;;5075850;28;20119;-78
2021/03/25 08:53:33;;;;;;;49.83;26.30;;;11.40;64.10;;;;;;5069838;28;20025;-71
2021/03/25 08:56:07;;;;;;;47.38;26.20;;;11.40;63.80;;;;;;5074493;28;20029;-71
2021/03/25 08:58:37;;;;;;;47.88;25.23;;;11.50;65.00;;;;;;5077795;28;20017;-71
2021/03/25 09:01:11;;;;;;;53.05;27.83;;;11.60;62.80;;;;;;5069949;28;20037;-72
2021/03/25 09:03:58;;;;;;;56.38;26.95;;;11.60;62.10;;;;;;5067954;28;20043;-71
2021/03/25 09:06:30;;;;;;;48.17;26.27;;;11.70;63.50;;;;;;5067032;28;20039;-71
2021/03/25 09:09:01;;;;;;;50.15;28.65;;;11.70;64.10;;;;;;5073890;28;20029;-71
2021/03/25 09:11:27;;;;;;;54.43;27.93;;;11.70;66.70;;;;;;5074047;28;20419;-72
2021/03/25 09:13:58;;;;;;;54.63;27.02;;;11.90;66.60;;;;;;5072444;28;20048;-71
2021/03/25 09:16:34;;;;;;;55.78;28.45;;;11.90;65.00;;;;;;5075844;28;20128;-71
2021/03/25 09:19:36;;;;;;;55.33;29.63;;;11.90;64.00;;;;;;5078234;28;20032;-71
2021/03/25 09:22:02;;;;;;;56.60;28.92;;;11.80;64.80;;;;;;5069463;28;20047;-71
2021/03/25 09:24:27;;;;;;;54.35;27.65;;;11.80;66.50;;;;;;5071243;28;20166;-71
2021/03/25 09:27:06;;;;;;;50.72;28.25;;;11.80;67.50;;;;;;5072602;28;20021;-71
2021/03/25 09:30:01;;;;;;;56.05;29.33;;;12.00;66.20;;;;;;5073864;28;20040;-71
2021/03/25 09:32:35;;;;;;;51.17;26.77;;;12.00;63.30;;;;;;5072175;28;20095;-72
2021/03/25 09:35:04;;;;;;;56.92;28.20;;;12.10;64.80;;;;;;5078825;28;20024;-72
2021/03/25 09:37:32;;;;;;;53.60;27.00;;;12.10;65.90;;;;;;5074847;28;20032;-71
2021/03/25 09:40:27;;;;;;;54.63;28.88;;;12.10;65.10;;;;;;5070319;28;20032;-71
2021/03/25 09:43:31;;;;;;;54.95;29.15;;;12.10;64.00;;;;;;5068620;28;20037;-71
2021/03/25 09:46:24;;;;;;;56.08;30.13;;;12.30;65.20;;;;;;5065225;28;20036;-71
2021/03/25 09:48:50;;;;;;;;;;;12.40;61.50;;;;;;5072101;28;20041;-72
2021/03/25 09:51:25;;;;;;;51.47;27.08;;;12.30;62.00;;;;;;5073495;28;19912;-71
2021/03/25 09:53:55;;;;;;;55.80;28.30;;;12.40;62.10;;;;;;5066554;28;20056;-71
2021/03/25 09:56:29;;;;;;;69.47;30.15;;;12.40;61.90;;;;;;5072801;28;20053;-71
2021/03/25 09:58:59;;;;;;;62.60;32.13;;;12.40;61.50;;;;;;5076877;28;20260;-71
2021/03/25 10:01:43;;;;;;;56.28;27.98;;;12.50;62.20;;;;;;5072691;28;20085;-71
2021/03/25 10:04:39;;;;;;;63.20;29.27;;;12.70;61.80;;;;;;5068414;28;20086;-71
2021/03/25 10:07:27;;;;;;;59.25;30.27;;;12.80;62.50;;;;;;5070351;28;20092;-71
2021/03/25 10:09:59;;;;;;;54.60;30.10;;;12.90;63.20;;;;;;5069686;28;20012;-71
2021/03/25 10:12:43;;;;;;;56.08;30.63;;;13.00;63.70;;;;;;5070417;28;20025;-71
2021/03/25 10:15:27;;;;;;;57.45;30.10;;;13.20;63.30;;;;;;5071130;28;20025;-71
2021/03/25 10:17:54;;;;;;;54.50;29.13;;;13.10;61.70;;;;;;5062488;28;20082;-71
2021/03/25 10:21:00;;;;;;;54.13;29.00;;;13.20;62.40;;;;;;5071022;28;20027;-71
2021/03/25 10:23:30;;;;;;;54.05;29.55;;;13.20;61.50;;;;;;5066137;28;20033;-72
2021/03/25 10:26:12;;;;;;;66.40;29.25;;;13.30;60.70;;;;;;5067110;28;20550;-72
2021/03/25 10:28:54;;;;;;;58.80;28.88;;;13.50;62.30;;;;;;5070508;28;20033;-72
2021/03/25 10:31:31;;;;;;;54.30;28.00;;;13.50;59.90;;;;;;5068932;28;20031;-72
2021/03/25 10:34:06;;;;;;;61.42;28.65;;;13.60;61.40;;;;;;5070566;28;20415;-72
2021/03/25 10:36:54;;;;;;;62.65;30.05;;;13.70;59.20;;;;;;5070303;28;20116;-71
2021/03/25 10:39:36;;;;;;;59.78;29.42;;;13.70;58.40;;;;;;5066344;28;20379;-72
2021/03/25 10:42:24;;;;;;;56.35;29.27;;;13.70;58.70;;;;;;5067270;28;20028;-72
2021/03/25 10:44:50;;;;;;;59.33;28.75;;;13.80;59.30;;;;;;5070652;28;20013;-72
2021/03/25 10:47:31;;;;;;;53.03;28.27;;;13.80;59.60;;;;;;5070293;28;20408;-72
2021/03/25 10:50:00;;;;;;;51.95;27.85;;;13.90;59.70;;;;;;5069490;28;20051;-72
2021/03/25 10:52:36;;;;;;;53.60;29.70;;;13.90;58.20;;;;;;5070304;28;20051;-72
2021/03/25 10:55:06;;;;;;;74.45;30.60;;;14.00;57.40;;;;;;5070160;28;20437;-72
2021/03/25 10:57:32;;;;;;;58.47;29.33;;;14.10;57.10;;;;;;5070244;28;20743;-71
2021/03/25 11:00:29;;;;;;;54.33;28.33;;;14.20;56.70;;;;;;5069883;28;20039;-77
2021/03/25 11:02:56;;;;;;;52.47;28.88;;;14.40;55.90;;;;;;5072357;28;20028;-77
2021/03/25 11:05:27;;;;;;;55.75;28.25;;;14.40;57.40;;;;;;5073482;28;20050;-78
2021/03/25 11:08:02;;;;;;;53.70;29.38;;;14.50;57.00;;;;;;5072829;28;20025;-77
2021/03/25 11:10:34;;;;;;;57.10;30.10;;;14.50;55.20;;;;;;5064734;28;20077;-78
2021/03/25 11:13:07;;;;;;;;;;;14.50;55.20;;;;;;5072812;28;20416;-80
2021/03/25 11:15:45;;;;;;;51.10;28.73;;;14.60;55.20;;;;;;5072241;28;19905;-76
2021/03/25 11:18:22;;;;;;;57.95;29.10;;;14.70;55.60;;;;;;5071102;28;20370;-80
2021/03/25 11:20:48;;;;;;;56.70;29.23;;;14.70;55.60;;;;;;5072565;28;20051;-77
2021/03/25 11:23:21;;;;;;;57.50;30.00;;;14.80;56.80;;;;;;5072605;28;20031;-80
2021/03/25 11:25:47;;;;;;;63.10;27.95;;;14.90;55.30;;;;;;5070970;28;20024;-77
2021/03/25 11:28:16;;;;;;;54.38;28.65;;;15.10;56.30;;;;;;5072229;28;20024;-77
2021/03/25 11:30:49;;;;;;;49.17;27.45;;;15.30;55.90;;;;;;5071470;28;20776;-78
2021/03/25 11:33:29;;;;;;;55.58;29.45;;;15.40;54.60;;;;;;5072263;28;20048;-77
2021/03/25 11:35:57;;;;;;;52.35;29.23;;;15.50;54.80;;;;;;5070715;28;20615;-78
2021/03/25 11:38:26;;;;;;;56.35;29.13;;;15.60;54.40;;;;;;5071455;28;20028;-79
2021/03/25 11:40:58;;;;;;;62.85;29.40;;;15.60;54.30;;;;;;5062232;28;20032;-77
2021/03/25 11:43:37;;;;;;;;;;;15.60;53.90;;;;;;5072460;28;20017;-78
2021/03/25 11:46:03;;;;;;;57.30;28.77;;;15.60;54.40;;;;;;5070511;28;19905;-78
2021/03/25 11:48:34;;;;;;;51.63;28.30;;;15.60;53.60;;;;;;5070267;28;20170;-79
2021/03/25 11:51:18;;;;;;;57.08;29.83;;;15.90;55.00;;;;;;5071307;28;20020;-79
2021/03/25 11:53:52;;;;;;;57.00;28.27;;;16.00;53.40;;;;;;5071541;28;20024;-79
2021/03/25 11:56:37;;;;;;;52.65;28.73;;;16.00;52.10;;;;;;5069769;28;20748;-79
2021/03/25 11:59:22;;;;;;;51.70;26.98;;;16.10;52.70;;;;;;5066141;28;20382;-78
2021/03/25 12:01:48;;;;;;;57.67;30.27;;;16.10;51.00;;;;;;5069062;28;20055;-78
2021/03/25 12:04:14;;;;;;;62.58;29.88;;;16.20;51.30;;;;;;5069919;28;20386;-80
2021/03/25 12:07:15;;;;;;;55.85;28.35;;;16.30;53.10;;;;;;5070169;28;20032;-78
2021/03/25 12:10:19;;;;;;;64.20;29.98;;;16.30;53.40;;;;;;5066464;28;20020;-80
2021/03/25 12:12:45;;;;;;;51.85;28.67;;;16.40;53.00;;;;;;5065273;28;20131;-76
2021/03/25 12:15:12;;;;;;;66.70;29.25;;;16.50;54.00;;;;;;5071120;28;20497;-78
2021/03/25 12:17:43;;;;;;;52.85;28.83;;;16.50;51.40;;;;;;5069754;28;20031;-77
2021/03/25 12:20:12;;;;;;;53.92;28.35;;;16.70;53.50;;;;;;5070885;28;20037;-78
2021/03/25 12:22:40;;;;;;;58.67;29.92;;;16.80;52.80;;;;;;5070658;28;20086;-78
2021/03/25 12:25:07;;;;;;;62.30;32.15;;;17.00;52.50;;;;;;5071521;28;20035;-78
2021/03/25 12:27:33;;;;;;;56.42;30.63;;;16.90;50.20;;;;;;5070212;28;20131;-80
2021/03/25 12:29:59;;;;;;;57.97;29.63;;;16.90;50.60;;;;;;5070624;28;20108;-80
2021/03/25 12:32:30;;;;;;;52.58;29.20;;;17.10;52.90;;;;;;5071681;28;20040;-77
2021/03/25 12:34:56;;;;;;;57.87;30.37;;;17.20;51.90;;;;;;5071216;28;20059;-77
2021/03/25 12:37:25;;;;;;;59.28;31.08;;;17.30;51.40;;;;;;5070434;28;20386;-78
2021/03/25 12:39:54;;;;;;;54.17;30.70;;;17.20;49.50;;;;;;5071027;28;20103;-78
2021/03/25 12:42:20;;;;;;;56.50;29.90;;;17.20;49.70;;;;;;5070504;28;20028;-78
2021/03/25 12:44:46;;;;;;;56.28;29.02;;;17.30;50.50;;;;;;5070006;28;20059;-78
2021/03/25 12:47:13;;;;;;;57.08;30.20;;;17.40;51.90;;;;;;5070492;28;20031;-78
2021/03/25 12:49:39;;;;;;;53.00;30.75;;;17.50;51.70;;;;;;5069441;28;20032;-78
2021/03/25 12:52:06;;;;;;;59.85;29.70;;;17.60;51.80;;;;;;5069426;28;20024;-79
2021/03/25 12:54:31;;;;;;;57.95;30.65;;;17.70;51.30;;;;;;5069287;28;20733;-78
2021/03/25 12:57:00;;;;;;;56.33;29.73;;;17.70;50.70;;;;;;5069210;28;20106;-78
2021/03/25 12:59:26;;;;;;;58.58;31.30;;;17.60;51.00;;;;;;5069361;28;20017;-78
2021/03/25 13:01:53;;;;;;;56.95;31.38;;;17.70;49.90;;;;;;5069683;28;20032;-78
2021/03/25 13:04:20;;;;;;;62.05;31.02;;;17.70;48.90;;;;;;5069594;28;20028;-78
2021/03/25 13:06:46;;;;;;;58.58;31.42;;;17.70;48.90;;;;;;5068366;28;20428;-78
2021/03/25 13:09:12;;;;;;;57.42;31.98;;;17.70;48.90;;;;;;5066488;28;20053;-78
2021/03/25 13:11:37;;;;;;;62.88;33.17;;;17.70;48.50;;;;;;5068142;28;20064;-78
2021/03/25 13:14:04;;;;;;;57.38;31.30;;;17.70;49.20;;;;;;5067351;28;20032;-78
2021/03/25 13:16:30;;;;;;;61.08;32.08;;;17.80;49.60;;;;;;5066456;28;20537;-78